Погода Малосана неделю

Южная Провинция, Малави

15 - 21 июля
  • 15июля
    Сегодня
    +13°
    +26°
    Ясно и безоблачно
    ВремяПогодаТемператураВлажностьДавлениеВетер, м/сВероятность осадков
    02:00Ясно и безоблачно+17°C52 %688 мм0.5 м/с5 %
    05:00Ясно и безоблачно+16°C59 %687 мм0.3 м/с5 %
    08:00Ясно и безоблачно+20°C49 %690 мм1.1 м/с5 %
    11:00Ясно и безоблачно+23°C41 %690 мм1.3 м/с5 %
    14:00Ясно и безоблачно+25°C32 %689 мм1.8 м/с5 %
    17:00Ясно и безоблачно+23°C39 %689 мм1.2 м/с5 %
    20:00Ясно и безоблачно+18°C41 %688 мм0.4 м/с5 %
    23:00Ясно и безоблачно+19°C44 %688 мм0.4 м/с5 %
  • 16июля
    Вторник
    +12°
    +26°
    Ясно и безоблачно
    ВремяПогодаТемператураВлажностьДавлениеВетер, м/сВероятность осадков
    02:00Ясно и безоблачно+16°C49 %687 мм0.4 м/с5 %
    05:00Ясно и безоблачно+14°C55 %687 мм1.2 м/с5 %
    08:00Ясно и безоблачно+19°C46 %689 мм1.2 м/с5 %
    11:00Ясно и безоблачно+22°C37 %690 мм1.5 м/с5 %
    14:00Ясно и безоблачно+25°C30 %688 мм1.4 м/с5 %
    17:00Ясно и безоблачно+23°C38 %688 мм1.1 м/с5 %
    20:00Ясно и безоблачно+18°C45 %688 мм0.7 м/с5 %
    23:00Ясно и безоблачно+17°C45 %688 мм0.9 м/с5 %
  • 17июля
    Среда
    +12°
    +25°
    Облачно с прояснениями
    ВремяПогодаТемператураВлажностьДавлениеВетер, м/сВероятность осадков
    02:00Ясно и безоблачно+15°C58 %687 мм1.1 м/с5 %
    05:00Ясно и безоблачно+13°C69 %687 мм1.3 м/с5 %
    08:00Практически безоблачно+18°C61 %690 мм1.3 м/с5 %
    11:00Небольшая облачность+22°C43 %691 мм1.2 м/с5 %
    14:00Облачно с прояснениями+25°C35 %689 мм1.5 м/с5 %
    17:00Ясно и безоблачно+23°C37 %689 мм1.4 м/с5 %
    20:00Ясно и безоблачно+20°C42 %689 мм0.8 м/с5 %
    23:00Ясно и безоблачно+16°C60 %688 мм0.8 м/с5 %
  • 18июля
    Четверг
    +14°
    +25°
    Ясно и безоблачно
    ВремяПогодаТемператураВлажностьДавлениеВетер, м/сВероятность осадков
    02:00Ясно и безоблачно+15°C66 %687 мм1.2 м/с5 %
    05:00Ясно и безоблачно+13°C79 %687 мм1.4 м/с5 %
    08:00Ясно и безоблачно+18°C67 %690 мм1.3 м/с5 %
    11:00Ясно и безоблачно+21°C51 %690 мм1.5 м/с5 %
    14:00Ясно и безоблачно+24°C34 %689 мм1.9 м/с5 %
    17:00Ясно и безоблачно+22°C47 %689 мм1.1 м/с5 %
    20:00Ясно и безоблачно+19°C49 %688 мм0.4 м/с5 %
    23:00Ясно и безоблачно+16°C68 %688 мм0.8 м/с5 %
  • 19июля
    Пятница
    +14°
    +26°
    Ясно и безоблачно
    ВремяПогодаТемператураВлажностьДавлениеВетер, м/сВероятность осадков
    02:00Ясно и безоблачно+15°C75 %687 мм0.8 м/с5 %
    05:00Ясно и безоблачно+14°C75 %687 мм0.4 м/с5 %
    08:00Ясно и безоблачно+20°C55 %689 мм0.8 м/с5 %
    11:00Ясно и безоблачно+24°C41 %690 мм1.5 м/с5 %
    14:00Ясно и безоблачно+26°C36 %688 мм1.6 м/с5 %
    17:00Ясно и безоблачно+24°C40 %688 мм1.0 м/с5 %
    20:00Ясно и безоблачно+20°C39 %687 мм0.9 м/с5 %
    23:00Ясно и безоблачно+19°C42 %687 мм0.9 м/с5 %
Мы используем cookies
Соглашаюсь